Time;durP1;ratioP1;P1;durP2;ratioP2;P2;SDS_P1;SDS_P2;PMS_P1;PMS_P2;Temp;Humidity;BMP_temperature;BMP_pressure;BME280_temperature;BME280_humidity;BME280_pressure;Samples;Min_cycle;Max_cycle;Signal;HPM_P1;HPM_P2
2021/06/14 00:00:53;;;;;;;5.57;2.72;;;;;;;;;;5077276;28;20575;-37
2021/06/14 00:03:20;;;;;;;4.60;2.50;;;;;;;;;;5071782;28;20132;-38
2021/06/14 00:05:47;;;;;;;6.72;3.08;;;;;;;;;;5052928;28;20073;-37
2021/06/14 00:08:16;;;;;;;5.72;2.65;;;;;;;;;;5052513;28;20128;-37
2021/06/14 00:10:43;;;;;;;4.55;2.20;;;;;;;;;;5058486;28;20090;-38
2021/06/14 00:13:11;;;;;;;4.78;2.53;;;;;;;;;;5070992;28;20124;-37
2021/06/14 00:15:38;;;;;;;4.85;2.90;;;;;;;;;;5059153;28;20045;-37
2021/06/14 00:18:05;;;;;;;3.47;2.33;;;;;;;;;;5101261;22;20049;-36
2021/06/14 00:20:33;;;;;;;5.00;2.70;;;;;;;;;;5078928;28;20040;-36
2021/06/14 00:23:00;;;;;;;4.25;2.42;;;;;;;;;;5070666;28;20576;-38
2021/06/14 00:25:27;;;;;;;4.80;2.63;;;;;;;;;;5071719;28;20051;-37
2021/06/14 00:27:55;;;;;;;5.45;2.70;;;;;;;;;;5072008;28;20127;-36
2021/06/14 00:30:22;;;;;;;6.05;2.83;;;;;;;;;;5078627;28;20044;-37
2021/06/14 00:32:50;;;;;;;4.55;2.40;;;;;;;;;;5071280;28;20048;-37
2021/06/14 00:35:17;;;;;;;4.25;2.40;;;;;;;;;;5072011;28;20128;-37
2021/06/14 00:37:44;;;;;;;6.20;2.50;;;;;;;;;;5072779;28;20049;-36
2021/06/14 00:40:11;;;;;;;6.90;2.60;;;;;;;;;;5090169;28;20071;-36
2021/06/14 00:42:38;;;;;;;8.68;2.83;;;;;;;;;;5071537;28;20070;-36
2021/06/14 00:45:07;;;;;;;6.68;2.55;;;;;;;;;;5071616;28;20044;-37
2021/06/14 00:47:34;;;;;;;5.30;2.47;;;;;;;;;;5075837;28;20132;-37
2021/06/14 00:50:01;;;;;;;4.28;2.50;;;;;;;;;;5091187;28;20082;-37
2021/06/14 00:52:29;;;;;;;6.15;2.90;;;;;;;;;;5090015;28;20059;-38
2021/06/14 00:54:56;;;;;;;4.22;2.75;;;;;;;;;;5090634;28;20117;-36
2021/06/14 00:57:22;;;;;;;4.20;2.50;;;;;;;;;;5071566;28;20455;-36
2021/06/14 00:59:49;;;;;;;4.90;2.90;;;;;;;;;;5074808;28;20067;-37
2021/06/14 01:02:21;;;;;;;6.78;2.80;;;;;;;;;;5089070;28;20040;-37
2021/06/14 01:04:48;;;;;;;5.45;2.60;;;;;;;;;;5090959;28;20131;-37
2021/06/14 01:07:17;;;;;;;5.47;2.70;;;;;;;;;;5107403;28;20051;-36
2021/06/14 01:09:45;;;;;;;5.50;2.65;;;;;;;;;;5095386;28;20652;-37
2021/06/14 01:12:15;;;;;;;4.80;3.03;;;;;;;;;;5092037;28;20052;-36
2021/06/14 01:14:49;;;;;;;4.93;2.70;;;;;;;;;;5095311;28;20405;-37
2021/06/14 01:17:19;;;;;;;5.45;2.95;;;;;;;;;;5094126;28;20127;-37
2021/06/14 01:20:06;;;;;;;5.40;3.08;;;;;;;;;;5089189;28;20040;-38
2021/06/14 01:22:51;;;;;;;8.27;3.50;;;;;;;;;;5086974;28;20044;-37
2021/06/14 01:25:19;;;;;;;6.00;2.90;;;;;;;;;;5101318;28;20044;-37
2021/06/14 01:27:52;;;;;;;4.63;2.85;;;;;;;;;;5095374;28;20512;-37
2021/06/14 01:30:21;;;;;;;5.95;2.47;;;;;;;;;;5094434;28;20144;-37
2021/06/14 01:32:51;;;;;;;7.22;2.72;;;;;;;;;;5084277;28;20044;-37
2021/06/14 01:35:29;;;;;;;3.83;2.40;;;;;;;;;;5095060;28;20410;-37
2021/06/14 01:37:58;;;;;;;6.18;3.10;;;;;;;;;;5110903;28;20051;-37
2021/06/14 01:40:28;;;;;;;6.28;2.85;;;;;;;;;;5094397;28;20109;-38
2021/06/14 01:42:57;;;;;;;6.50;2.88;;;;;;;;;;5089843;28;20470;-37
2021/06/14 01:45:25;;;;;;;6.85;3.17;;;;;;;;;;5084120;28;20160;-37
2021/06/14 01:47:53;;;;;;;10.15;2.83;;;;;;;;;;5085030;28;20130;-37
2021/06/14 01:50:21;;;;;;;6.30;3.10;;;;;;;;;;5092843;28;20132;-37
2021/06/14 01:52:48;;;;;;;5.60;3.60;;;;;;;;;;5094563;28;20101;-37
2021/06/14 01:55:16;;;;;;;5.20;3.20;;;;;;;;;;5091406;28;20127;-37
2021/06/14 01:57:52;;;;;;;5.85;3.40;;;;;;;;;;5079591;28;20085;-38
2021/06/14 02:00:35;;;;;;;5.63;3.50;;;;;;;;;;5078942;28;20057;-37
2021/06/14 02:03:19;;;;;;;6.50;3.00;;;;;;;;;;5093785;28;20123;-37
2021/06/14 02:05:50;;;;;;;5.22;2.85;;;;;;;;;;5094192;28;20051;-37
2021/06/14 02:08:18;;;;;;;5.45;3.25;;;;;;;;;;5094297;28;20044;-38
2021/06/14 02:10:47;;;;;;;8.25;3.55;;;;;;;;;;5094450;28;20044;-38
2021/06/14 02:13:14;;;;;;;6.00;3.20;;;;;;;;;;5094692;28;20497;-37
2021/06/14 02:15:41;;;;;;;6.13;3.15;;;;;;;;;;5094439;28;20519;-37
2021/06/14 02:18:12;;;;;;;6.88;3.03;;;;;;;;;;5083571;28;20044;-37
2021/06/14 02:20:43;;;;;;;5.50;3.05;;;;;;;;;;5086796;28;20484;-37
2021/06/14 02:23:12;;;;;;;6.88;2.90;;;;;;;;;;5073358;28;20040;-38
2021/06/14 02:25:39;;;;;;;5.65;3.20;;;;;;;;;;5072354;28;20052;-38
2021/06/14 02:28:06;;;;;;;9.15;3.20;;;;;;;;;;5089431;28;20131;-38
2021/06/14 02:30:33;;;;;;;4.45;2.97;;;;;;;;;;5082122;28;20125;-37
2021/06/14 02:33:03;;;;;;;5.78;3.15;;;;;;;;;;5090377;28;20040;-38
2021/06/14 02:35:31;;;;;;;7.30;3.22;;;;;;;;;;5073607;28;20044;-38
2021/06/14 02:37:59;;;;;;;4.10;2.65;;;;;;;;;;5073580;28;20048;-37
2021/06/14 02:40:30;;;;;;;4.95;3.05;;;;;;;;;;5072354;28;20118;-36
2021/06/14 02:43:07;;;;;;;7.07;3.42;;;;;;;;;;5073515;28;20056;-38
2021/06/14 02:45:37;;;;;;;6.95;3.30;;;;;;;;;;5073382;28;20048;-37
2021/06/14 02:48:13;;;;;;;5.97;3.10;;;;;;;;;;5072544;28;20056;-37
2021/06/14 02:50:41;;;;;;;9.55;4.00;;;;;;;;;;5084915;28;20079;-36
2021/06/14 02:53:09;;;;;;;10.48;4.38;;;;;;;;;;5087959;28;20405;-37
2021/06/14 02:55:41;;;;;;;5.85;3.10;;;;;;;;;;5093194;28;20040;-38
2021/06/14 02:58:08;;;;;;;4.22;2.83;;;;;;;;;;5094269;28;20524;-37
2021/06/14 03:00:35;;;;;;;7.15;3.40;;;;;;;;;;5083811;28;20059;-38
2021/06/14 03:03:06;;;;;;;7.22;3.35;;;;;;;;;;5108836;28;20052;-38
2021/06/14 03:05:34;;;;;;;7.10;3.13;;;;;;;;;;5093151;28;20584;-37
2021/06/14 03:08:02;;;;;;;6.93;3.85;;;;;;;;;;5109049;28;20044;-37
2021/06/14 03:10:31;;;;;;;9.50;3.70;;;;;;;;;;5088796;28;20538;-37
2021/06/14 03:12:58;;;;;;;5.68;3.50;;;;;;;;;;5089135;28;20044;-38
2021/06/14 03:15:26;;;;;;;5.00;3.30;;;;;;;;;;5092624;28;20073;-36
2021/06/14 03:17:54;;;;;;;5.88;3.80;;;;;;;;;;5092981;28;20083;-37
2021/06/14 03:20:22;;;;;;;4.82;3.17;;;;;;;;;;5099502;28;20646;-37
2021/06/14 03:22:51;;;;;;;7.03;3.80;;;;;;;;;;5092027;28;20073;-36
2021/06/14 03:25:18;;;;;;;6.32;3.40;;;;;;;;;;5093524;28;20076;-36
2021/06/14 03:27:46;;;;;;;6.32;3.55;;;;;;;;;;5081110;28;20072;-36
2021/06/14 03:30:14;;;;;;;8.77;3.97;;;;;;;;;;5085371;28;20083;-36
2021/06/14 03:32:42;;;;;;;6.65;3.42;;;;;;;;;;5088020;28;20139;-37
2021/06/14 03:35:11;;;;;;;7.43;3.45;;;;;;;;;;5094642;28;20124;-38
2021/06/14 03:37:38;;;;;;;6.78;3.85;;;;;;;;;;5095471;28;20079;-37
2021/06/14 03:40:06;;;;;;;7.88;4.00;;;;;;;;;;5093061;28;20606;-38
2021/06/14 03:42:32;;;;;;;5.97;3.40;;;;;;;;;;5093191;28;20634;-38
2021/06/14 03:44:59;;;;;;;7.55;3.83;;;;;;;;;;5092874;28;20257;-38
2021/06/14 03:47:27;;;;;;;7.78;3.67;;;;;;;;;;5093434;28;20365;-38
2021/06/14 03:49:54;;;;;;;8.43;3.88;;;;;;;;;;5096018;28;20056;-37
2021/06/14 03:52:21;;;;;;;8.32;3.90;;;;;;;;;;5091844;28;20086;-37
2021/06/14 03:54:47;;;;;;;7.65;4.07;;;;;;;;;;5095800;28;20147;-38
2021/06/14 03:57:14;;;;;;;7.20;4.60;;;;;;;;;;5092553;28;20464;-38
2021/06/14 03:59:41;;;;;;;11.73;4.40;;;;;;;;;;5091923;28;20662;-37
2021/06/14 04:02:08;;;;;;;5.75;3.90;;;;;;;;;;5092556;28;20419;-38
2021/06/14 04:04:54;;;;;;;7.75;4.05;;;;;;;;;;5092208;28;20051;-37
2021/06/14 04:07:40;;;;;;;7.22;4.32;;;;;;;;;;5092114;28;20058;-38
2021/06/14 04:10:07;;;;;;;9.25;5.07;;;;;;;;;;5092112;28;20508;-37
2021/06/14 04:12:34;;;;;;;9.27;4.18;;;;;;;;;;5092543;28;20130;-37
2021/06/14 04:15:02;;;;;;;6.35;4.10;;;;;;;;;;5073308;28;20036;-37
2021/06/14 04:17:29;;;;;;;6.22;4.38;;;;;;;;;;5070717;28;20477;-36
2021/06/14 04:19:56;;;;;;;6.57;4.25;;;;;;;;;;5070326;28;20117;-37
2021/06/14 04:22:23;;;;;;;8.38;4.47;;;;;;;;;;5083154;28;20048;-37
2021/06/14 04:24:50;;;;;;;9.80;3.97;;;;;;;;;;5092309;28;20109;-37
2021/06/14 04:27:17;;;;;;;6.38;3.90;;;;;;;;;;5080248;28;20080;-38
2021/06/14 04:29:44;;;;;;;10.55;4.88;;;;;;;;;;5076274;28;20668;-38
2021/06/14 04:32:11;;;;;;;8.70;4.72;;;;;;;;;;5091850;28;20056;-38
2021/06/14 04:34:38;;;;;;;7.72;4.72;;;;;;;;;;5091064;28;20044;-38
2021/06/14 04:37:04;;;;;;;7.90;4.70;;;;;;;;;;5092005;28;20069;-38
2021/06/14 04:39:32;;;;;;;8.93;4.22;;;;;;;;;;5091569;28;20052;-38
2021/06/14 04:41:58;;;;;;;5.72;4.05;;;;;;;;;;5083558;28;20055;-37
2021/06/14 04:44:25;;;;;;;10.02;5.20;;;;;;;;;;5091540;28;20174;-38
2021/06/14 04:46:52;;;;;;;7.35;4.80;;;;;;;;;;5091392;28;20075;-38
2021/06/14 04:49:19;;;;;;;10.07;4.90;;;;;;;;;;5086868;28;20048;-38
2021/06/14 04:51:46;;;;;;;7.90;4.60;;;;;;;;;;5091080;28;20044;-38
2021/06/14 04:54:13;;;;;;;7.57;4.80;;;;;;;;;;5091589;28;20052;-37
2021/06/14 04:56:39;;;;;;;10.80;4.63;;;;;;;;;;5091132;28;20052;-39
2021/06/14 04:59:06;;;;;;;6.63;4.40;;;;;;;;;;5090877;28;20075;-38
2021/06/14 05:01:33;;;;;;;5.88;4.15;;;;;;;;;;5084262;28;20127;-35
2021/06/14 05:04:00;;;;;;;6.45;4.30;;;;;;;;;;5087856;28;20052;-37
2021/06/14 05:06:28;;;;;;;7.53;4.38;;;;;;;;;;5091403;28;20042;-37
2021/06/14 05:08:55;;;;;;;7.10;4.22;;;;;;;;;;5091833;28;20076;-37
2021/06/14 05:11:22;;;;;;;5.60;3.90;;;;;;;;;;5084056;28;20040;-36
2021/06/14 05:13:48;;;;;;;10.93;4.70;;;;;;;;;;5085293;28;20040;-37
2021/06/14 05:16:15;;;;;;;8.00;4.82;;;;;;;;;;5072207;28;20048;-37
2021/06/14 05:18:42;;;;;;;7.45;4.72;;;;;;;;;;5072457;28;20053;-36
2021/06/14 05:21:09;;;;;;;8.02;4.05;;;;;;;;;;5071542;28;20442;-36
2021/06/14 05:23:35;;;;;;;10.77;4.40;;;;;;;;;;5089944;28;20464;-35
2021/06/14 05:26:02;;;;;;;5.93;3.85;;;;;;;;;;5090168;28;20127;-36
2021/06/14 05:28:29;;;;;;;6.15;4.47;;;;;;;;;;5089480;28;20090;-36
2021/06/14 05:30:56;;;;;;;6.40;3.72;;;;;;;;;;5083704;28;20044;-36
2021/06/14 05:33:23;;;;;;;8.55;4.72;;;;;;;;;;5079580;28;20056;-36
2021/06/14 05:35:50;;;;;;;6.22;4.18;;;;;;;;;;5074296;28;20055;-38
2021/06/14 05:38:17;;;;;;;7.57;4.88;;;;;;;;;;5092063;28;20075;-37
2021/06/14 05:40:44;;;;;;;10.27;4.35;;;;;;;;;;5091548;28;20397;-36
2021/06/14 05:43:10;;;;;;;6.63;4.30;;;;;;;;;;5089537;28;20537;-37
2021/06/14 05:45:37;;;;;;;9.20;3.85;;;;;;;;;;5086103;28;20053;-36
2021/06/14 05:48:04;;;;;;;7.15;4.30;;;;;;;;;;5091645;28;20122;-37
2021/06/14 05:50:32;;;;;;;7.68;3.92;;;;;;;;;;5088190;28;20068;-37
2021/06/14 05:52:58;;;;;;;7.18;3.88;;;;;;;;;;5087372;28;20079;-36
2021/06/14 05:55:25;;;;;;;6.95;3.90;;;;;;;;;;5089000;28;20527;-38
2021/06/14 05:57:52;;;;;;;8.15;4.28;;;;;;;;;;5090808;28;20055;-38
2021/06/14 06:00:19;;;;;;;10.35;4.35;;;;;;;;;;5090679;28;20055;-37
2021/06/14 06:02:46;;;;;;;7.03;4.03;;;;;;;;;;5090638;28;20040;-38
2021/06/14 06:05:13;;;;;;;6.50;4.28;;;;;;;;;;5095187;28;20106;-38
2021/06/14 06:07:40;;;;;;;8.05;4.05;;;;;;;;;;5095980;28;20251;-37
2021/06/14 06:10:08;;;;;;;9.27;4.50;;;;;;;;;;5095026;28;20078;-38
2021/06/14 06:12:35;;;;;;;10.27;4.65;;;;;;;;;;5094700;28;20048;-37
2021/06/14 06:15:04;;;;;;;6.90;4.10;;;;;;;;;;5095479;28;20047;-37
2021/06/14 06:17:31;;;;;;;7.25;4.32;;;;;;;;;;5084028;28;20165;-37
2021/06/14 06:19:58;;;;;;;9.32;4.80;;;;;;;;;;5083972;22;20128;-36
2021/06/14 06:22:25;;;;;;;8.32;4.45;;;;;;;;;;5074486;28;20041;-37
2021/06/14 06:24:52;;;;;;;8.63;4.10;;;;;;;;;;5062095;28;20045;-36
2021/06/14 06:27:19;;;;;;;6.15;4.30;;;;;;;;;;5056655;28;20625;-37
2021/06/14 06:29:45;;;;;;;9.20;4.70;;;;;;;;;;5069594;28;20357;-37
2021/06/14 06:32:12;;;;;;;7.78;4.03;;;;;;;;;;5074746;28;20068;-37
2021/06/14 06:34:39;;;;;;;10.85;4.28;;;;;;;;;;5069359;28;20524;-36
2021/06/14 06:37:06;;;;;;;7.13;4.00;;;;;;;;;;5058913;28;20044;-36
2021/06/14 06:39:33;;;;;;;6.10;3.78;;;;;;;;;;5072281;28;20045;-35
2021/06/14 06:42:01;;;;;;;6.57;3.95;;;;;;;;;;5054899;28;20489;-36
2021/06/14 06:44:28;;;;;;;5.93;4.05;;;;;;;;;;5074263;28;20115;-37
2021/06/14 06:46:54;;;;;;;9.90;4.32;;;;;;;;;;5071084;28;20075;-36
2021/06/14 06:49:21;;;;;;;7.90;3.85;;;;;;;;;;5057751;28;20144;-37
2021/06/14 06:51:48;;;;;;;8.00;4.03;;;;;;;;;;5067392;28;20546;-36
2021/06/14 06:54:15;;;;;;;8.00;4.22;;;;;;;;;;5072193;28;20497;-37
2021/06/14 06:56:49;;;;;;;8.20;4.07;;;;;;;;;;5064771;28;20100;-36
2021/06/14 06:59:16;;;;;;;7.78;4.07;;;;;;;;;;5069045;28;20103;-37
2021/06/14 07:01:44;;;;;;;7.50;3.58;;;;;;;;;;5062930;28;20123;-37
2021/06/14 07:04:12;;;;;;;7.55;4.05;;;;;;;;;;5047809;28;20520;-36
2021/06/14 07:06:43;;;;;;;5.78;3.50;;;;;;;;;;5069711;28;20045;-41
2021/06/14 07:09:11;;;;;;;7.47;3.58;;;;;;;;;;5057050;28;20418;-37
2021/06/14 07:11:40;;;;;;;6.88;3.42;;;;;;;;;;5066344;28;20054;-36
2021/06/14 07:14:07;;;;;;;9.60;3.72;;;;;;;;;;5047628;28;20044;-36
2021/06/14 07:16:35;;;;;;;5.93;3.45;;;;;;;;;;5065475;28;20052;-37
2021/06/14 07:19:04;;;;;;;18.20;4.13;;;;;;;;;;5066151;28;20059;-36
2021/06/14 07:21:32;;;;;;;6.85;3.60;;;;;;;;;;5064612;28;20509;-36
2021/06/14 07:24:00;;;;;;;8.45;3.63;;;;;;;;;;5065033;28;20048;-37
2021/06/14 07:26:29;;;;;;;5.72;3.40;;;;;;;;;;5065199;28;20359;-37
2021/06/14 07:28:56;;;;;;;5.95;3.05;;;;;;;;;;5071414;28;20061;-36
2021/06/14 07:31:24;;;;;;;6.40;3.33;;;;;;;;;;5068618;28;20056;-37
2021/06/14 07:33:54;;;;;;;7.07;3.00;;;;;;;;;;5048777;28;20045;-37
2021/06/14 07:36:21;;;;;;;8.35;3.60;;;;;;;;;;5064668;28;20049;-37
2021/06/14 07:38:50;;;;;;;5.93;3.13;;;;;;;;;;5050877;28;20048;-37
2021/06/14 07:41:18;;;;;;;8.00;3.90;;;;;;;;;;5062690;28;20053;-37
2021/06/14 07:43:46;;;;;;;9.10;4.15;;;;;;;;;;5061726;28;20057;-37
2021/06/14 07:46:14;;;;;;;8.23;3.78;;;;;;;;;;5060093;28;20049;-37
2021/06/14 07:48:42;;;;;;;6.93;3.47;;;;;;;;;;5067011;28;20409;-36
2021/06/14 07:51:10;;;;;;;9.63;3.70;;;;;;;;;;5072453;28;20058;-36
2021/06/14 07:53:37;;;;;;;7.05;3.75;;;;;;;;;;5071973;28;20098;-36
2021/06/14 07:56:06;;;;;;;5.28;3.25;;;;;;;;;;5068813;28;20048;-36
2021/06/14 07:58:33;;;;;;;10.70;3.70;;;;;;;;;;5045790;28;20051;-35
2021/06/14 08:01:02;;;;;;;8.40;3.65;;;;;;;;;;5066403;28;20048;-35
2021/06/14 08:03:29;;;;;;;8.40;3.80;;;;;;;;;;5060148;28;20098;-38
2021/06/14 08:05:57;;;;;;;9.52;3.95;;;;;;;;;;5065889;28;20053;-37
2021/06/14 08:08:24;;;;;;;6.32;3.60;;;;;;;;;;5062207;28;20056;-36
2021/06/14 08:10:52;;;;;;;8.95;4.10;;;;;;;;;;5061506;28;20049;-37
2021/06/14 08:13:18;;;;;;;5.70;3.58;;;;;;;;;;5066133;28;20554;-36
2021/06/14 08:15:45;;;;;;;5.03;3.75;;;;;;;;;;5066882;28;20066;-36
2021/06/14 08:26:26;;;;;;;6.50;3.50;;;;;;;;;;5069496;28;20473;-35
2021/06/14 08:28:54;;;;;;;6.20;3.72;;;;;;;;;;5075019;28;20044;-35
2021/06/14 08:31:21;;;;;;;5.57;3.35;;;;;;;;;;5073145;28;20063;-37
2021/06/14 08:33:47;;;;;;;6.25;3.88;;;;;;;;;;5080807;28;20052;-35
2021/06/14 08:36:14;;;;;;;5.97;4.18;;;;;;;;;;5080098;28;20040;-36
2021/06/14 08:38:41;;;;;;;7.75;3.63;;;;;;;;;;5086306;28;20068;-35
2021/06/14 08:41:08;;;;;;;4.68;3.33;;;;;;;;;;5072619;28;20048;-36
2021/06/14 08:43:37;;;;;;;6.82;3.38;;;;;;;;;;5073433;28;20106;-36
2021/06/14 08:46:04;;;;;;;7.07;3.20;;;;;;;;;;5075406;28;20115;-37
2021/06/14 08:48:31;;;;;;;10.45;3.97;;;;;;;;;;5070522;28;20094;-36
2021/06/14 08:50:58;;;;;;;6.57;3.58;;;;;;;;;;5081898;28;20060;-37
2021/06/14 08:53:25;;;;;;;8.38;3.58;;;;;;;;;;5078952;28;20044;-36
2021/06/14 08:55:51;;;;;;;7.20;3.60;;;;;;;;;;5067928;28;20083;-37
2021/06/14 08:58:18;;;;;;;6.93;3.67;;;;;;;;;;5081678;28;20374;-36
2021/06/14 09:00:45;;;;;;;6.47;3.30;;;;;;;;;;5082920;28;20152;-37
2021/06/14 09:03:12;;;;;;;7.45;3.70;;;;;;;;;;5072256;28;20103;-36
2021/06/14 09:05:39;;;;;;;7.60;3.70;;;;;;;;;;5072146;28;20048;-36
2021/06/14 09:08:13;;;;;;;6.03;3.40;;;;;;;;;;5068520;28;20207;-37
2021/06/14 09:10:41;;;;;;;6.43;3.50;;;;;;;;;;5051256;28;20051;-36
2021/06/14 09:13:11;;;;;;;8.52;3.30;;;;;;;;;;5066377;28;20044;-37
2021/06/14 09:15:38;;;;;;;6.88;3.60;;;;;;;;;;5066633;28;20461;-37
2021/06/14 09:18:15;;;;;;;5.70;3.17;;;;;;;;;;5067392;28;20041;-36
2021/06/14 09:20:58;;;;;;;7.57;3.47;;;;;;;;;;5070836;28;20063;-36
2021/06/14 09:23:25;;;;;;;6.60;3.40;;;;;;;;;;5065087;28;20413;-36
2021/06/14 09:26:00;;;;;;;6.80;3.58;;;;;;;;;;5064114;28;20052;-37
2021/06/14 09:28:27;;;;;;;7.53;3.65;;;;;;;;;;5061995;28;20574;-36
2021/06/14 09:30:54;;;;;;;7.18;3.00;;;;;;;;;;5070734;28;20543;-37
2021/06/14 09:33:23;;;;;;;8.18;3.35;;;;;;;;;;5048843;28;20053;-36
2021/06/14 09:35:52;;;;;;;8.48;3.28;;;;;;;;;;5064110;28;20144;-37
2021/06/14 09:38:20;;;;;;;7.15;3.35;;;;;;;;;;5037959;28;20049;-37
2021/06/14 09:40:48;;;;;;;6.20;3.20;;;;;;;;;;5073801;28;20089;-37
2021/06/14 09:43:37;;;;;;;7.72;3.70;;;;;;;;;;5072738;28;20130;-35
2021/06/14 09:46:05;;;;;;;5.70;3.15;;;;;;;;;;5068853;28;20059;-37
2021/06/14 09:48:35;;;;;;;6.30;3.50;;;;;;;;;;5069569;28;20048;-36
2021/06/14 09:51:07;;;;;;;6.25;3.20;;;;;;;;;;5052661;28;20043;-36
2021/06/14 09:53:41;;;;;;;6.90;2.88;;;;;;;;;;5068101;28;20045;-36
2021/06/14 09:56:16;;;;;;;8.43;2.88;;;;;;;;;;5068420;28;20114;-35
2021/06/14 09:58:44;;;;;;;8.07;2.95;;;;;;;;;;5067432;28;20140;-36
2021/06/14 10:01:12;;;;;;;7.75;2.90;;;;;;;;;;5068734;28;20052;-36
2021/06/14 10:03:43;;;;;;;5.47;3.15;;;;;;;;;;5068327;28;20417;-35
2021/06/14 10:06:12;;;;;;;5.25;2.40;;;;;;;;;;5073496;28;20048;-36
2021/06/14 10:08:42;;;;;;;7.85;3.00;;;;;;;;;;5077490;28;20057;-36
2021/06/14 10:11:11;;;;;;;5.68;2.83;;;;;;;;;;5060365;28;20072;-36
2021/06/14 10:13:39;;;;;;;8.57;2.95;;;;;;;;;;5067762;28;20177;-36
2021/06/14 10:16:10;;;;;;;7.60;2.92;;;;;;;;;;5071602;28;20087;-38
2021/06/14 10:18:41;;;;;;;6.45;2.58;;;;;;;;;;5069205;28;20052;-36
2021/06/14 10:21:09;;;;;;;5.72;2.50;;;;;;;;;;5068974;28;20068;-36
2021/06/14 10:23:36;;;;;;;7.20;2.42;;;;;;;;;;5070738;28;20120;-36
2021/06/14 10:26:03;;;;;;;6.88;2.97;;;;;;;;;;5070728;28;20106;-37
2021/06/14 10:28:30;;;;;;;9.35;3.85;;;;;;;;;;5070567;28;20086;-36
2021/06/14 10:30:57;;;;;;;6.82;3.08;;;;;;;;;;5069739;28;20040;-36
2021/06/14 10:33:25;;;;;;;5.45;2.97;;;;;;;;;;5062282;28;20083;-37
2021/06/14 10:35:53;;;;;;;6.13;2.92;;;;;;;;;;5067976;28;20052;-36
2021/06/14 10:38:32;;;;;;;6.30;2.97;;;;;;;;;;5062727;28;20101;-37
2021/06/14 10:40:59;;;;;;;5.20;2.63;;;;;;;;;;5067562;28;20432;-36
2021/06/14 10:43:27;;;;;;;5.47;3.08;;;;;;;;;;5067333;28;20044;-36
2021/06/14 10:45:55;;;;;;;6.93;3.63;;;;;;;;;;5066582;28;20049;-36
2021/06/14 10:48:23;;;;;;;5.47;3.20;;;;;;;;;;5063992;28;20055;-36
2021/06/14 10:51:01;;;;;;;6.80;2.92;;;;;;;;;;5068367;28;20048;-37
2021/06/14 10:53:32;;;;;;;4.68;2.42;;;;;;;;;;5064155;28;20040;-36
2021/06/14 10:56:03;;;;;;;8.60;3.08;;;;;;;;;;5054121;28;20048;-36
2021/06/14 10:58:30;;;;;;;7.22;3.10;;;;;;;;;;5072501;28;20122;-36
2021/06/14 11:01:07;;;;;;;8.55;3.10;;;;;;;;;;5070825;28;20070;-36
2021/06/14 11:03:45;;;;;;;7.50;2.90;;;;;;;;;;5064723;28;20140;-36
2021/06/14 11:06:21;;;;;;;7.25;3.03;;;;;;;;;;5063950;28;20155;-38
2021/06/14 11:08:58;;;;;;;5.03;2.40;;;;;;;;;;5065257;28;20048;-37
2021/06/14 11:11:25;;;;;;;6.22;2.88;;;;;;;;;;5070659;28;20045;-36
2021/06/14 11:13:52;;;;;;;5.95;2.70;;;;;;;;;;5052597;28;20053;-36
2021/06/14 11:16:19;;;;;;;6.65;2.90;;;;;;;;;;5068368;28;20094;-36
2021/06/14 11:18:49;;;;;;;5.95;3.50;;;;;;;;;;5063968;28;20037;-37
2021/06/14 11:21:17;;;;;;;5.15;2.60;;;;;;;;;;5071005;28;20502;-36
2021/06/14 11:23:48;;;;;;;5.88;2.78;;;;;;;;;;5068798;28;20151;-36
2021/06/14 11:26:25;;;;;;;5.55;3.10;;;;;;;;;;5066502;28;20072;-36
2021/06/14 11:28:52;;;;;;;5.05;2.63;;;;;;;;;;5070860;28;20116;-36
2021/06/14 11:31:19;;;;;;;3.92;2.60;;;;;;;;;;5072292;28;20045;-37
2021/06/14 11:33:47;;;;;;;7.53;2.58;;;;;;;;;;5070821;28;20533;-36
2021/06/14 11:36:20;;;;;;;6.80;2.58;;;;;;;;;;5073035;28;20106;-37
2021/06/14 11:38:47;;;;;;;6.50;3.13;;;;;;;;;;5052827;28;20105;-36
2021/06/14 11:41:25;;;;;;;4.70;2.38;;;;;;;;;;5066542;28;20532;-36
2021/06/14 11:44:11;;;;;;;5.25;2.40;;;;;;;;;;5070349;28;20581;-36
2021/06/14 11:46:42;;;;;;;4.95;2.90;;;;;;;;;;5064834;28;20052;-36
2021/06/14 11:49:09;;;;;;;4.78;2.92;;;;;;;;;;5060267;28;20095;-36
2021/06/14 11:51:36;;;;;;;5.05;2.85;;;;;;;;;;5055505;28;20075;-36
2021/06/14 11:54:04;;;;;;;9.48;2.67;;;;;;;;;;5069447;28;20102;-36
2021/06/14 11:56:36;;;;;;;4.38;2.25;;;;;;;;;;5066803;28;20106;-36
2021/06/14 11:59:05;;;;;;;6.53;2.90;;;;;;;;;;5065389;28;20127;-36
2021/06/14 12:01:33;;;;;;;6.28;2.85;;;;;;;;;;5066715;28;20063;-35
2021/06/14 12:04:01;;;;;;;6.07;2.70;;;;;;;;;;5067232;28;20045;-37
2021/06/14 12:06:39;;;;;;;7.38;2.63;;;;;;;;;;5066247;28;20452;-37
2021/06/14 12:09:07;;;;;;;6.50;2.78;;;;;;;;;;5064718;28;20150;-37
2021/06/14 12:11:34;;;;;;;7.10;2.78;;;;;;;;;;5069036;28;20080;-37
2021/06/14 12:14:17;;;;;;;8.55;2.47;;;;;;;;;;5064561;28;20298;-37
2021/06/14 12:16:46;;;;;;;6.05;2.65;;;;;;;;;;5065583;28;20562;-36
2021/06/14 12:19:14;;;;;;;7.25;2.58;;;;;;;;;;5052169;28;20044;-36
2021/06/14 12:21:41;;;;;;;5.45;2.80;;;;;;;;;;5067788;28;20127;-36
2021/06/14 12:24:14;;;;;;;5.20;2.53;;;;;;;;;;5068900;28;20044;-36
2021/06/14 12:26:42;;;;;;;4.47;2.60;;;;;;;;;;5063591;28;20541;-36
2021/06/14 12:29:19;;;;;;;6.65;2.67;;;;;;;;;;5060716;28;20087;-37
2021/06/14 12:31:46;;;;;;;7.72;2.70;;;;;;;;;;5035145;28;20067;-37
2021/06/14 12:34:13;;;;;;;7.70;2.47;;;;;;;;;;5054402;28;20063;-37
2021/06/14 12:36:40;;;;;;;5.35;2.70;;;;;;;;;;5070270;28;20102;-37
2021/06/14 12:39:06;;;;;;;8.38;2.47;;;;;;;;;;5070408;28;20128;-37
2021/06/14 12:41:41;;;;;;;5.47;2.33;;;;;;;;;;5036486;28;20061;-36
2021/06/14 12:44:12;;;;;;;3.72;2.53;;;;;;;;;;5068098;28;20048;-36
2021/06/14 12:46:39;;;;;;;4.15;2.10;;;;;;;;;;5072729;28;20052;-36
2021/06/14 12:49:07;;;;;;;4.38;2.30;;;;;;;;;;5063201;28;20556;-36
2021/06/14 12:51:35;;;;;;;5.15;2.30;;;;;;;;;;5048639;28;20075;-37
2021/06/14 12:54:02;;;;;;;5.18;2.10;;;;;;;;;;5065241;28;20053;-36
2021/06/14 12:56:29;;;;;;;5.38;2.78;;;;;;;;;;5030016;28;20044;-37
2021/06/14 12:58:56;;;;;;;4.38;2.42;;;;;;;;;;5049313;28;20049;-37
2021/06/14 13:01:23;;;;;;;3.85;2.17;;;;;;;;;;5068282;28;20072;-37
2021/06/14 13:03:50;;;;;;;5.25;2.30;;;;;;;;;;5063751;28;20497;-36
2021/06/14 13:06:17;;;;;;;6.03;2.25;;;;;;;;;;5062866;28;20041;-37
2021/06/14 13:08:45;;;;;;;3.85;2.10;;;;;;;;;;5057408;28;20982;-36
2021/06/14 13:11:13;;;;;;;3.67;2.00;;;;;;;;;;5055040;28;20087;-37
2021/06/14 13:13:48;;;;;;;4.35;2.10;;;;;;;;;;5060187;28;20041;-36
2021/06/14 13:16:16;;;;;;;3.72;2.10;;;;;;;;;;5067865;28;20132;-36
2021/06/14 13:18:53;;;;;;;5.82;2.20;;;;;;;;;;5067872;28;20045;-37
2021/06/14 13:21:23;;;;;;;3.67;2.13;;;;;;;;;;5070606;28;20061;-37
2021/06/14 13:23:52;;;;;;;6.40;2.38;;;;;;;;;;5053795;28;20364;-37
2021/06/14 13:26:20;;;;;;;6.53;2.53;;;;;;;;;;5052661;28;20041;-36
2021/06/14 13:28:47;;;;;;;5.13;2.35;;;;;;;;;;5079889;28;20052;-37
2021/06/14 13:31:18;;;;;;;4.82;2.05;;;;;;;;;;5079961;28;20090;-37
2021/06/14 13:33:47;;;;;;;6.30;1.95;;;;;;;;;;5056176;28;20083;-37
2021/06/14 13:36:17;;;;;;;5.13;2.42;;;;;;;;;;5075556;28;20044;-37
2021/06/14 13:38:46;;;;;;;3.95;2.10;;;;;;;;;;5074337;28;20059;-37
2021/06/14 13:41:17;;;;;;;4.03;2.00;;;;;;;;;;5076650;28;20052;-37
2021/06/14 13:43:44;;;;;;;6.22;2.30;;;;;;;;;;5072976;28;20113;-37
2021/06/14 13:46:11;;;;;;;6.28;3.30;;;;;;;;;;5070486;28;20501;-37
2021/06/14 13:48:40;;;;;;;6.38;2.10;;;;;;;;;;5053937;28;20441;-36
2021/06/14 13:51:11;;;;;;;5.65;2.20;;;;;;;;;;5074704;28;20094;-37
2021/06/14 13:53:45;;;;;;;4.35;2.10;;;;;;;;;;5073945;28;20049;-37
2021/06/14 13:56:13;;;;;;;3.20;1.75;;;;;;;;;;5066902;28;20045;-37
2021/06/14 13:58:41;;;;;;;5.82;2.30;;;;;;;;;;5071725;28;20106;-36
2021/06/14 14:01:15;;;;;;;3.40;1.90;;;;;;;;;;5074358;28;20045;-37
2021/06/14 14:03:43;;;;;;;6.75;2.05;;;;;;;;;;5050735;28;20049;-37
2021/06/14 14:06:11;;;;;;;6.00;1.95;;;;;;;;;;5067710;28;20051;-37
2021/06/14 14:08:38;;;;;;;6.47;1.88;;;;;;;;;;5069652;28;20091;-37
2021/06/14 14:11:06;;;;;;;6.30;2.00;;;;;;;;;;5068175;28;20060;-37
2021/06/14 14:13:33;;;;;;;4.90;1.95;;;;;;;;;;5064969;28;20041;-37
2021/06/14 14:16:00;;;;;;;3.15;1.77;;;;;;;;;;5049624;28;21284;-37
2021/06/14 14:18:27;;;;;;;4.85;1.90;;;;;;;;;;5051202;28;20040;-37
2021/06/14 14:20:54;;;;;;;6.57;1.95;;;;;;;;;;5071012;28;20105;-37
2021/06/14 14:23:21;;;;;;;5.50;1.65;;;;;;;;;;5063978;28;20052;-37
2021/06/14 14:25:48;;;;;;;4.40;1.80;;;;;;;;;;5047321;28;20406;-37
2021/06/14 14:28:15;;;;;;;3.85;1.60;;;;;;;;;;5068995;28;20098;-37
2021/06/14 14:30:48;;;;;;;4.80;1.63;;;;;;;;;;5067653;28;20044;-37
2021/06/14 14:33:16;;;;;;;6.10;1.73;;;;;;;;;;5056284;28;20106;-37
2021/06/14 14:35:49;;;;;;;3.95;1.80;;;;;;;;;;5070897;28;20048;-37
2021/06/14 14:38:16;;;;;;;4.50;1.70;;;;;;;;;;5065564;28;20466;-38
2021/06/14 14:41:00;;;;;;;3.72;1.40;;;;;;;;;;5073700;28;20037;-37
2021/06/14 14:43:27;;;;;;;4.22;1.80;;;;;;;;;;5065613;28;20127;-37
2021/06/14 14:45:54;;;;;;;4.35;1.58;;;;;;;;;;5049421;28;20056;-38
2021/06/14 14:48:21;;;;;;;3.55;1.85;;;;;;;;;;5067333;28;20453;-38
2021/06/14 14:50:48;;;;;;;3.95;1.50;;;;;;;;;;5058526;28;20074;-37
2021/06/14 14:53:21;;;;;;;5.93;1.90;;;;;;;;;;5071574;28;20044;-37
2021/06/14 14:55:48;;;;;;;4.25;1.67;;;;;;;;;;5070999;28;20446;-38
2021/06/14 14:58:15;;;;;;;4.70;1.38;;;;;;;;;;5065953;28;20047;-42
2021/06/14 15:00:41;;;;;;;4.05;1.60;;;;;;;;;;5069451;28;20090;-38